Terminal Aerodrome Forecast
Issued by NWS Wakefield, VA

Home | Current Version | Previous Version | Text Only | Print | Product List | Glossary On
Versions: 1 2 3 4 5 6 7 8 9 10 11 12 13 14 15 16 17 18
086
FTUS41 KAKQ 121732
TAFRIC
TAF
KRIC 121732Z 1218/1318 18005KT P6SM OVC050
     FM130300 26005KT P6SM BKN100
     FM130800 30012G18KT P6SM SCT100
     FM131300 32017G30KT P6SM SKC=

USA.gov is the U.S. government's official web portal to all federal, state and local government web resources and services.